createdAt,value
2023-04-14T00:00:04.898Z,84.66
2023-04-14T00:01:04.890Z,85.83
2023-04-14T00:02:04.962Z,85.59
2023-04-14T00:03:05.138Z,85.73
2023-04-14T00:04:05.077Z,85.49
2023-04-14T00:05:04.919Z,85.63
2023-04-14T00:06:04.820Z,85.63
2023-04-14T00:07:04.797Z,85.22
2023-04-14T00:08:04.805Z,86.21
2023-04-14T00:09:04.791Z,86.24
2023-04-14T00:10:04.793Z,86.45
2023-04-14T00:11:04.774Z,86.45
2023-04-14T00:12:04.754Z,87.17
2023-04-14T00:13:04.744Z,87.27
2023-04-14T00:14:04.723Z,87.38
2023-04-14T00:15:04.728Z,87.38
2023-04-14T00:16:04.700Z,87.38
2023-04-14T00:17:04.746Z,87.63
2023-04-14T00:18:04.789Z,87.52
2023-04-14T00:19:04.682Z,87.93
2023-04-14T00:20:04.663Z,88.45
2023-04-14T00:21:04.709Z,88.35
2023-04-14T00:22:04.731Z,88.35
2023-04-14T00:23:04.656Z,89.22
2023-04-14T00:24:04.623Z,88.86
2023-04-14T00:25:04.618Z,88.86
2023-04-14T00:26:04.594Z,88.76
2023-04-14T00:27:04.583Z,88.86
2023-04-14T00:28:04.560Z,89.17
2023-04-14T00:29:04.618Z,89.11
2023-04-14T00:30:04.552Z,89.11
2023-04-14T00:31:04.638Z,89.42
2023-04-14T00:32:04.528Z,89.73
2023-04-14T00:33:04.575Z,89.11
2023-04-14T00:34:04.517Z,89.52
2023-04-14T00:35:04.496Z,89.42
2023-04-14T00:36:04.484Z,89.52
2023-04-14T00:37:04.498Z,89.67
2023-04-14T00:38:04.461Z,89.42
2023-04-14T00:39:04.461Z,89.46
2023-04-14T00:40:04.462Z,89.77
2023-04-14T00:41:04.432Z,89.87
2023-04-14T00:42:04.405Z,89.87
2023-04-14T00:43:04.407Z,89.77
2023-04-14T00:44:04.407Z,90.19
2023-04-14T00:45:04.396Z,90.33
2023-04-14T00:46:04.400Z,90.53
2023-04-14T00:47:04.381Z,90.64
2023-04-14T00:48:04.358Z,91.16
2023-04-14T00:49:04.339Z,91.61
2023-04-14T00:50:04.325Z,92.02
2023-04-14T00:51:04.323Z,92.44
2023-04-14T00:52:04.290Z,92.33
2023-04-14T00:53:04.326Z,92.02
2023-04-14T00:54:04.294Z,92.23
2023-04-14T00:55:04.316Z,91.71
2023-04-14T00:56:04.259Z,92.33
2023-04-14T00:57:04.250Z,92.95
2023-04-14T00:58:04.248Z,92.95
2023-04-14T00:59:04.220Z,93.16
2023-04-14T01:00:04.223Z,93.05
2023-04-14T01:01:04.242Z,93.26
2023-04-14T01:02:04.382Z,93.62
2023-04-14T01:03:04.436Z,93.57
2023-04-14T01:04:04.215Z,93.82
2023-04-14T01:05:04.240Z,93.51
2023-04-14T01:06:04.164Z,93.51
2023-04-14T01:07:04.155Z,93.72
2023-04-14T01:08:04.156Z,93.72
2023-04-14T01:09:04.139Z,94.65
2023-04-14T01:10:04.121Z,94.79
2023-04-14T01:11:04.094Z,94.23
2023-04-14T01:12:04.065Z,95.10
2023-04-14T01:13:04.084Z,95.52
2023-04-14T01:14:04.045Z,95.52
2023-04-14T01:15:04.038Z,95.62
2023-04-14T01:16:04.080Z,95.52
2023-04-14T01:17:04.050Z,95.52
2023-04-14T01:18:04.069Z,95.73
2023-04-14T01:19:03.993Z,95.62
2023-04-14T01:20:03.990Z,95.62
2023-04-14T01:21:03.981Z,96.14
2023-04-14T01:22:03.973Z,95.94
2023-04-14T01:23:03.963Z,95.94
2023-04-14T01:24:03.938Z,95.62
2023-04-14T01:25:03.948Z,95.73
2023-04-14T01:26:03.909Z,95.73
2023-04-14T01:27:03.946Z,96.24
2023-04-14T01:28:03.887Z,96.03
2023-04-14T01:29:03.885Z,95.42
2023-04-14T01:30:03.872Z,95.73
2023-04-14T01:31:03.899Z,95.73
2023-04-14T01:32:03.871Z,96.86
2023-04-14T01:33:03.853Z,96.03
2023-04-14T01:34:03.837Z,95.42
2023-04-14T01:35:03.836Z,95.52
2023-04-14T01:36:03.825Z,96.03
2023-04-14T01:37:03.814Z,96.66
2023-04-14T01:38:03.788Z,95.73
2023-04-14T01:39:03.780Z,96.76
2023-04-14T01:40:03.749Z,95.73
2023-04-14T01:41:03.765Z,95.62
2023-04-14T01:42:03.748Z,96.76
2023-04-14T01:43:03.728Z,95.94
2023-04-14T01:44:03.722Z,95.73
2023-04-14T01:45:03.697Z,95.62
2023-04-14T01:46:03.746Z,95.73
2023-04-14T01:47:03.680Z,95.73
2023-04-14T01:48:03.753Z,95.73
2023-04-14T01:49:03.852Z,95.52
2023-04-14T01:50:03.673Z,95.94
2023-04-14T01:51:03.664Z,95.37
2023-04-14T01:52:03.631Z,95.52
2023-04-14T01:53:03.626Z,95.52
2023-04-14T01:54:03.594Z,95.52
2023-04-14T01:55:03.606Z,95.52
2023-04-14T01:56:03.590Z,95.31
2023-04-14T01:57:03.611Z,95.31
2023-04-14T01:58:03.564Z,95.42
2023-04-14T01:59:03.566Z,95.31
2023-04-14T02:00:03.528Z,95.62
2023-04-14T02:01:03.551Z,95.21
2023-04-14T02:02:03.564Z,95.73
2023-04-14T02:03:03.593Z,96.03
2023-04-14T02:04:03.613Z,96.97
2023-04-14T02:05:03.474Z,95.62
2023-04-14T02:06:03.471Z,96.39
2023-04-14T02:07:03.464Z,96.24
2023-04-14T02:08:03.461Z,96.24
2023-04-14T02:09:03.432Z,96.14
2023-04-14T02:10:03.423Z,96.24
2023-04-14T02:11:03.432Z,96.03
2023-04-14T02:12:03.415Z,96.34
2023-04-14T02:13:03.444Z,96.24
2023-04-14T02:14:03.365Z,96.14
2023-04-14T02:15:03.377Z,96.03
2023-04-14T02:16:03.352Z,96.03
2023-04-14T02:17:03.378Z,96.03
2023-04-14T02:18:03.419Z,96.14
2023-04-14T02:19:03.378Z,96.34
2023-04-14T02:20:03.314Z,96.14
2023-04-14T02:21:03.304Z,96.45
2023-04-14T02:22:03.353Z,96.76
2023-04-14T02:23:03.288Z,96.24
2023-04-14T02:24:03.256Z,95.73
2023-04-14T02:25:03.271Z,96.34
2023-04-14T02:26:03.255Z,95.87
2023-04-14T02:27:03.227Z,96.24
2023-04-14T02:28:03.237Z,95.98
2023-04-14T02:29:03.337Z,96.91
2023-04-14T02:30:03.184Z,95.62
2023-04-14T02:31:03.238Z,96.91
2023-04-14T02:32:03.178Z,96.39
2023-04-14T02:33:03.261Z,96.70
2023-04-14T02:34:03.152Z,96.70
2023-04-14T02:35:03.146Z,96.39
2023-04-14T02:36:03.138Z,96.70
2023-04-14T02:37:03.120Z,96.39
2023-04-14T02:38:03.145Z,96.19
2023-04-14T02:39:03.302Z,96.39
2023-04-14T02:40:03.089Z,95.98
2023-04-14T02:41:03.076Z,96.08
2023-04-14T02:42:03.066Z,96.08
2023-04-14T02:43:03.080Z,95.56
2023-04-14T02:44:03.057Z,95.62
2023-04-14T02:45:03.040Z,95.67
2023-04-14T02:46:03.052Z,95.52
2023-04-14T02:47:03.012Z,95.56
2023-04-14T02:48:03.057Z,95.77
2023-04-14T02:49:02.977Z,95.77
2023-04-14T02:50:02.982Z,95.67
2023-04-14T02:51:02.972Z,95.36
2023-04-14T02:52:02.942Z,95.67
2023-04-14T02:53:02.974Z,95.77
2023-04-14T02:54:02.940Z,95.56
2023-04-14T02:55:02.961Z,95.25
2023-04-14T02:56:02.923Z,95.46
2023-04-14T02:57:02.904Z,95.61
2023-04-14T02:58:02.930Z,95.19
2023-04-14T02:59:03.116Z,95.19
2023-04-14T03:00:02.873Z,95.29
2023-04-14T03:01:02.862Z,95.19
2023-04-14T03:02:03.081Z,95.61
2023-04-14T03:03:02.928Z,95.40
2023-04-14T03:04:02.902Z,95.67
2023-04-14T03:05:02.822Z,95.61
2023-04-14T03:06:02.787Z,95.09
2023-04-14T03:07:02.774Z,95.61
2023-04-14T03:08:02.775Z,94.78
2023-04-14T03:09:02.987Z,95.71
2023-04-14T03:10:02.761Z,95.40
2023-04-14T03:11:02.729Z,95.24
2023-04-14T03:12:02.734Z,95.81
2023-04-14T03:13:02.738Z,95.61
2023-04-14T03:14:02.711Z,94.98
2023-04-14T03:15:02.684Z,95.29
2023-04-14T03:16:02.748Z,95.71
2023-04-14T03:17:03.305Z,96.23
2023-04-14T03:18:02.696Z,96.69
2023-04-14T03:19:02.912Z,96.33
2023-04-14T03:20:02.660Z,96.44
2023-04-14T03:21:02.631Z,96.12
2023-04-14T03:22:02.623Z,96.69
2023-04-14T03:23:02.607Z,96.58
2023-04-14T03:24:02.605Z,96.54
2023-04-14T03:25:02.658Z,96.37
2023-04-14T03:26:02.578Z,96.54
2023-04-14T03:27:02.546Z,96.75
2023-04-14T03:28:02.536Z,96.75
2023-04-14T03:29:02.720Z,96.33
2023-04-14T03:30:02.533Z,96.79
2023-04-14T03:31:02.522Z,96.44
2023-04-14T03:32:02.517Z,96.37
2023-04-14T03:33:02.573Z,96.58
2023-04-14T03:34:02.470Z,96.58
2023-04-14T03:35:02.517Z,96.79
2023-04-14T03:36:02.467Z,96.69
2023-04-14T03:37:02.488Z,96.48
2023-04-14T03:38:02.459Z,96.58
2023-04-14T03:39:02.701Z,96.79
2023-04-14T03:40:02.443Z,96.37
2023-04-14T03:41:02.389Z,96.06
2023-04-14T03:42:02.395Z,96.89
2023-04-14T03:43:02.370Z,96.23
2023-04-14T03:44:02.388Z,96.48
2023-04-14T03:45:02.356Z,96.79
2023-04-14T03:46:02.339Z,97.10
2023-04-14T03:47:02.336Z,96.69
2023-04-14T03:48:02.388Z,96.27
2023-04-14T03:49:02.572Z,96.83
2023-04-14T03:50:02.311Z,97.41
2023-04-14T03:51:02.322Z,96.89
2023-04-14T03:52:02.298Z,97.56
2023-04-14T03:53:02.273Z,96.62
2023-04-14T03:54:02.270Z,96.73
2023-04-14T03:55:02.267Z,96.73
2023-04-14T03:56:02.239Z,96.52
2023-04-14T03:57:02.237Z,96.94
2023-04-14T03:58:02.252Z,96.52
2023-04-14T03:59:02.463Z,96.73
2023-04-14T04:00:02.220Z,96.42
2023-04-14T04:01:02.162Z,97.39
2023-04-14T04:02:02.231Z,96.73
2023-04-14T04:03:02.495Z,97.19
2023-04-14T04:04:02.218Z,98.02
2023-04-14T04:05:02.241Z,97.71
2023-04-14T04:06:02.109Z,97.60
2023-04-14T04:07:02.160Z,97.91
2023-04-14T04:08:02.088Z,98.12
2023-04-14T04:09:02.382Z,98.12
2023-04-14T04:10:02.153Z,98.22
2023-04-14T04:11:02.068Z,98.54
2023-04-14T04:12:02.056Z,98.22
2023-04-14T04:13:02.027Z,99.26
2023-04-14T04:14:02.033Z,98.85
2023-04-14T04:15:02.047Z,98.74
2023-04-14T04:16:02.012Z,98.79
2023-04-14T04:17:02.108Z,99.31
2023-04-14T04:18:02.055Z,98.85
2023-04-14T04:19:02.248Z,98.90
2023-04-14T04:20:01.965Z,98.85
2023-04-14T04:21:01.978Z,98.64
2023-04-14T04:22:01.953Z,99.10
2023-04-14T04:23:01.938Z,98.74
2023-04-14T04:24:01.939Z,99.05
2023-04-14T04:25:01.910Z,98.95
2023-04-14T04:26:01.998Z,98.85
2023-04-14T04:27:01.878Z,98.90
2023-04-14T04:28:01.875Z,98.90
2023-04-14T04:29:01.970Z,99.05
2023-04-14T04:30:01.876Z,98.85
2023-04-14T04:31:01.842Z,98.74
2023-04-14T04:32:01.899Z,98.90
2023-04-14T04:33:01.870Z,98.69
2023-04-14T04:34:01.835Z,98.64
2023-04-14T04:35:01.859Z,98.74
2023-04-14T04:36:01.782Z,99.16
2023-04-14T04:37:01.795Z,98.85
2023-04-14T04:38:01.762Z,98.95
2023-04-14T04:39:01.936Z,98.85
2023-04-14T04:40:01.891Z,98.64
2023-04-14T04:41:01.745Z,98.58
2023-04-14T04:42:01.718Z,98.69
2023-04-14T04:43:01.709Z,98.74
2023-04-14T04:44:01.778Z,98.69
2023-04-14T04:45:01.728Z,99.00
2023-04-14T04:46:01.746Z,98.64
2023-04-14T04:47:01.773Z,98.69
2023-04-14T04:48:01.720Z,99.00
2023-04-14T04:49:01.942Z,99.10
2023-04-14T04:50:01.638Z,98.95
2023-04-14T04:51:01.623Z,98.38
2023-04-14T04:52:01.601Z,98.38
2023-04-14T04:53:01.682Z,98.33
2023-04-14T04:54:01.572Z,99.05
2023-04-14T04:55:01.589Z,98.38
2023-04-14T04:56:01.587Z,98.33
2023-04-14T04:57:01.562Z,97.96
2023-04-14T04:58:01.536Z,98.07
2023-04-14T04:59:01.998Z,98.17
2023-04-14T05:00:01.514Z,97.86
2023-04-14T05:01:01.516Z,98.48
2023-04-14T05:02:01.646Z,98.90
2023-04-14T05:03:01.545Z,98.64
2023-04-14T05:04:01.530Z,99.00
2023-04-14T05:05:01.478Z,98.95
2023-04-14T05:06:01.471Z,98.74
2023-04-14T05:07:01.422Z,98.85
2023-04-14T05:08:01.430Z,98.74
2023-04-14T05:09:01.774Z,98.85
2023-04-14T05:10:01.458Z,98.90
2023-04-14T05:11:01.398Z,98.95
2023-04-14T05:12:01.420Z,98.85
2023-04-14T05:13:01.356Z,98.95
2023-04-14T05:14:01.352Z,98.74
2023-04-14T05:15:01.354Z,99.05
2023-04-14T05:16:01.423Z,98.74
2023-04-14T05:17:01.327Z,98.64
2023-04-14T05:18:01.361Z,99.05
2023-04-14T05:19:01.516Z,99.11
2023-04-14T05:20:01.298Z,99.16
2023-04-14T05:21:01.269Z,98.91
2023-04-14T05:22:01.266Z,98.74
2023-04-14T05:23:01.254Z,98.60
2023-04-14T05:24:01.274Z,98.43
2023-04-14T05:25:01.261Z,98.91
2023-04-14T05:26:16.352Z,98.70
2023-04-14T05:27:13.192Z,98.60
2023-04-14T05:28:02.211Z,98.91
2023-04-14T05:29:01.433Z,98.24
2023-04-14T05:30:01.202Z,98.13
2023-04-14T05:31:01.484Z,98.44
2023-04-14T05:32:01.163Z,98.03
2023-04-14T05:33:01.192Z,97.67
2023-04-14T05:34:01.310Z,97.67
2023-04-14T05:35:01.131Z,97.36
2023-04-14T05:36:01.119Z,97.36
2023-04-14T05:37:01.109Z,96.95
2023-04-14T05:38:01.101Z,97.36
2023-04-14T05:39:01.068Z,97.01
2023-04-14T05:40:01.093Z,96.49
2023-04-14T05:41:01.076Z,96.59
2023-04-14T05:42:01.040Z,96.39
2023-04-14T05:43:01.034Z,95.98
2023-04-14T05:44:01.395Z,96.49
2023-04-14T05:45:01.029Z,95.52
2023-04-14T05:46:00.996Z,95.52
2023-04-14T05:47:01.049Z,95.42
2023-04-14T05:48:01.044Z,95.36
2023-04-14T05:49:01.182Z,95.52
2023-04-14T05:50:00.985Z,95.31
2023-04-14T05:51:00.944Z,95.52
2023-04-14T05:52:00.940Z,95.27
2023-04-14T05:53:00.922Z,95.02
2023-04-14T05:54:01.291Z,94.60
2023-04-14T05:55:00.887Z,94.50
2023-04-14T05:56:00.887Z,94.60
2023-04-14T05:57:00.890Z,94.40
2023-04-14T05:58:00.905Z,93.73
2023-04-14T05:59:00.858Z,93.32
2023-04-14T06:00:00.853Z,93.73
2023-04-14T06:01:00.818Z,93.07
2023-04-14T06:02:01.510Z,93.18
2023-04-14T06:03:00.990Z,92.46
2023-04-14T06:04:01.364Z,92.21
2023-04-14T06:05:00.883Z,91.48
2023-04-14T06:06:00.784Z,91.28
2023-04-14T06:07:00.754Z,91.17
2023-04-14T06:08:00.752Z,91.54
2023-04-14T06:09:01.234Z,91.13
2023-04-14T06:10:00.772Z,90.06
2023-04-14T06:11:00.721Z,89.75
2023-04-14T06:12:00.707Z,89.58
2023-04-14T06:13:00.711Z,89.42
2023-04-14T06:14:00.855Z,89.11
2023-04-14T06:15:00.702Z,88.90
2023-04-14T06:16:00.677Z,89.01
2023-04-14T06:17:00.669Z,89.01
2023-04-14T06:18:00.714Z,89.52
2023-04-14T06:19:01.026Z,89.62
2023-04-14T06:20:00.638Z,89.42
2023-04-14T06:21:00.599Z,89.32
2023-04-14T06:22:00.605Z,89.25
2023-04-14T06:23:00.596Z,89.32
2023-04-14T06:24:00.579Z,89.42
2023-04-14T06:25:00.652Z,89.22
2023-04-14T06:26:00.553Z,89.22
2023-04-14T06:27:00.535Z,89.52
2023-04-14T06:28:00.527Z,89.46
2023-04-14T06:29:00.943Z,89.52
2023-04-14T06:30:00.518Z,89.38
2023-04-14T06:31:00.523Z,89.69
2023-04-14T06:32:00.575Z,88.82
2023-04-14T06:33:00.507Z,88.86
2023-04-14T06:34:00.458Z,88.45
2023-04-14T06:35:00.465Z,88.76
2023-04-14T06:36:00.447Z,87.85
2023-04-14T06:37:00.430Z,87.81
2023-04-14T06:38:00.430Z,88.12
2023-04-14T06:39:00.626Z,87.05
2023-04-14T06:40:00.413Z,86.08
2023-04-14T06:41:00.411Z,85.53
2023-04-14T06:42:00.367Z,84.71
2023-04-14T06:43:00.366Z,84.98
2023-04-14T06:44:00.360Z,83.91
2023-04-14T06:45:00.386Z,83.09
2023-04-14T06:46:00.383Z,82.31
2023-04-14T06:47:00.347Z,82.03
2023-04-14T06:48:00.357Z,82.27
2023-04-14T06:49:00.521Z,81.86
2023-04-14T06:50:00.287Z,82.57
2023-04-14T06:51:00.257Z,82.95
2023-04-14T06:52:00.270Z,81.82
2023-04-14T06:53:00.254Z,81.45
2023-04-14T06:54:00.611Z,82.37
2023-04-14T06:55:00.254Z,82.13
2023-04-14T06:56:00.228Z,80.38
2023-04-14T06:57:01.223Z,81.76
2023-04-14T06:58:00.204Z,81.82
2023-04-14T06:59:00.180Z,81.92
2023-04-14T07:00:00.219Z,82.03
2023-04-14T07:01:00.257Z,82.84
2023-04-14T07:02:00.258Z,81.85
2023-04-14T07:03:00.269Z,80.24
2023-04-14T07:04:00.301Z,80.31
2023-04-14T07:05:00.173Z,80.10
2023-04-14T07:06:00.125Z,80.00
2023-04-14T07:07:00.111Z,80.21
2023-04-14T07:08:00.102Z,79.38
2023-04-14T07:09:00.054Z,79.59
2023-04-14T07:10:00.134Z,79.69
2023-04-14T07:11:00.066Z,80.41
2023-04-14T07:12:00.067Z,80.21
2023-04-14T07:13:00.029Z,80.82
2023-04-14T07:14:00.323Z,80.68
2023-04-14T07:15:00.004Z,80.58
2023-04-14T07:15:59.984Z,79.86
2023-04-14T07:17:00.009Z,79.86
2023-04-14T07:18:00.233Z,79.96
2023-04-14T07:18:59.964Z,79.72
2023-04-14T07:19:59.962Z,78.53
2023-04-14T07:20:59.930Z,77.54
2023-04-14T07:21:59.915Z,78.56
2023-04-14T07:22:59.923Z,79.59
2023-04-14T07:24:00.184Z,80.37
2023-04-14T07:24:59.879Z,79.52
2023-04-14T07:25:59.890Z,79.72
2023-04-14T07:26:59.863Z,79.38
2023-04-14T07:28:03.653Z,78.05
2023-04-14T07:28:59.832Z,77.23
2023-04-14T07:29:59.889Z,77.53
2023-04-14T07:30:59.850Z,77.64
2023-04-14T07:31:59.812Z,77.23
2023-04-14T07:32:59.839Z,77.53
2023-04-14T07:34:00.013Z,76.81
2023-04-14T07:34:59.901Z,76.54
2023-04-14T07:36:03.600Z,77.47
2023-04-14T07:36:59.740Z,77.47
2023-04-14T07:37:59.734Z,77.26
2023-04-14T07:38:59.737Z,77.61
2023-04-14T07:39:59.752Z,78.53
2023-04-14T07:40:59.710Z,79.55
2023-04-14T07:41:59.689Z,78.63
2023-04-14T07:42:59.673Z,80.37
2023-04-14T07:43:59.867Z,80.33
2023-04-14T07:44:59.719Z,80.44
2023-04-14T07:45:59.648Z,79.79
2023-04-14T07:46:59.642Z,78.15
2023-04-14T07:47:59.680Z,77.43
2023-04-14T07:48:59.625Z,77.33
2023-04-14T07:49:59.619Z,78.05
2023-04-14T07:50:59.591Z,78.66
2023-04-14T07:51:59.590Z,78.49
2023-04-14T07:52:59.575Z,78.38
2023-04-14T07:53:59.735Z,76.75
2023-04-14T07:54:59.558Z,76.43
2023-04-14T07:55:59.545Z,76.23
2023-04-14T07:56:59.525Z,75.72
2023-04-14T07:57:59.530Z,76.03
2023-04-14T07:58:59.654Z,75.52
2023-04-14T07:59:59.514Z,75.86
2023-04-14T08:00:59.480Z,76.27
2023-04-14T08:01:59.573Z,76.47
2023-04-14T08:02:59.644Z,77.26
2023-04-14T08:03:59.577Z,77.22
2023-04-14T08:04:59.559Z,77.49
2023-04-14T08:05:59.416Z,74.73
2023-04-14T08:06:59.415Z,75.24
2023-04-14T08:07:59.406Z,74.90
2023-04-14T08:08:59.576Z,75.82
2023-04-14T08:09:59.394Z,73.77
2023-04-14T08:10:59.356Z,73.27
2023-04-14T08:11:59.351Z,75.21
2023-04-14T08:13:00.598Z,74.56
2023-04-14T08:13:59.372Z,73.67
2023-04-14T08:14:59.347Z,72.72
2023-04-14T08:15:59.435Z,72.41
2023-04-14T08:16:59.288Z,71.15
2023-04-14T08:17:59.294Z,70.51
2023-04-14T08:18:59.360Z,68.68
2023-04-14T08:19:59.272Z,69.49
2023-04-14T08:20:59.308Z,68.88
2023-04-14T08:21:59.223Z,70.00
2023-04-14T08:22:59.233Z,70.38
2023-04-14T08:23:59.202Z,68.85
2023-04-14T08:24:59.225Z,66.82
2023-04-14T08:25:59.194Z,67.15
2023-04-14T08:26:59.204Z,68.48
2023-04-14T08:27:59.172Z,68.65
2023-04-14T08:28:59.326Z,67.52
2023-04-14T08:29:59.161Z,68.78
2023-04-14T08:30:59.138Z,68.82
2023-04-14T08:31:59.162Z,67.87
2023-04-14T08:32:59.536Z,66.52
2023-04-14T08:33:59.092Z,64.89
2023-04-14T08:35:36.030Z,64.69
2023-04-14T08:36:00.724Z,66.11
2023-04-14T08:36:59.096Z,66.38
2023-04-14T08:37:59.042Z,64.25
2023-04-14T08:38:59.311Z,64.38
2023-04-14T08:39:59.033Z,64.38
2023-04-14T08:40:59.063Z,64.89
2023-04-14T08:41:59.005Z,64.12
2023-04-14T08:42:58.997Z,62.70
2023-04-14T08:43:58.995Z,63.30
2023-04-14T08:44:58.986Z,61.85
2023-04-14T08:45:59.019Z,63.17
2023-04-14T08:46:58.961Z,61.34
2023-04-14T08:47:58.948Z,63.07
2023-04-14T08:49:00.308Z,62.43
2023-04-14T08:49:58.927Z,62.74
2023-04-14T08:50:58.936Z,62.40
2023-04-14T08:51:58.894Z,60.88
2023-04-14T08:52:58.905Z,60.07
2023-04-14T08:53:59.001Z,60.14
2023-04-14T08:54:58.904Z,58.82
2023-04-14T08:55:58.931Z,60.24
2023-04-14T08:56:58.843Z,60.93
2023-04-14T08:57:58.859Z,61.40
2023-04-14T08:58:58.815Z,60.23
2023-04-14T08:59:58.800Z,58.07
2023-04-14T09:00:58.938Z,57.80
2023-04-14T09:01:59.033Z,58.20
2023-04-14T09:02:58.998Z,58.38
2023-04-14T09:03:58.953Z,57.37
2023-04-14T09:04:58.871Z,57.67
2023-04-14T09:05:58.751Z,57.67
2023-04-14T09:06:58.735Z,57.24
2023-04-14T09:07:58.736Z,58.07
2023-04-14T09:08:58.758Z,58.45
2023-04-14T09:09:58.710Z,57.79
2023-04-14T09:10:58.689Z,57.29
2023-04-14T09:11:58.672Z,56.07
2023-04-14T09:12:58.663Z,56.45
2023-04-14T09:13:58.688Z,53.90
2023-04-14T09:14:58.671Z,54.61
2023-04-14T09:15:58.621Z,53.70
2023-04-14T09:16:58.682Z,53.60
2023-04-14T09:17:58.626Z,53.85
2023-04-14T09:19:01.503Z,56.15
2023-04-14T09:20:35.395Z,55.94
2023-04-14T09:21:30.183Z,55.14
2023-04-14T09:21:59.554Z,53.09
2023-04-14T09:22:58.544Z,52.61
2023-04-14T09:23:58.712Z,52.84
2023-04-14T09:24:58.646Z,53.60
2023-04-14T09:25:58.548Z,54.82
2023-04-14T09:26:58.514Z,55.37
2023-04-14T09:27:58.500Z,56.28
2023-04-14T09:28:58.549Z,56.01
2023-04-14T09:29:58.486Z,57.40
2023-04-14T09:30:58.532Z,54.08
2023-04-14T09:31:58.457Z,54.51
2023-04-14T09:32:58.505Z,55.55
2023-04-14T09:33:58.519Z,56.41
2023-04-14T09:34:58.604Z,57.33
2023-04-14T09:35:58.449Z,57.84
2023-04-14T09:36:58.401Z,57.53
2023-04-14T09:37:58.376Z,56.21
2023-04-14T09:38:58.377Z,57.46
2023-04-14T09:39:58.360Z,57.89
2023-04-14T09:40:58.398Z,57.25
2023-04-14T09:41:58.341Z,56.44
2023-04-14T09:42:58.334Z,57.53
2023-04-14T09:43:58.303Z,57.71
2023-04-14T09:44:58.301Z,57.04
2023-04-14T09:45:58.290Z,56.13
2023-04-14T09:46:58.315Z,55.83
2023-04-14T09:47:58.313Z,54.53
2023-04-14T09:48:58.268Z,55.52
2023-04-14T09:49:58.254Z,53.65
2023-04-14T09:50:58.274Z,54.44
2023-04-14T09:51:58.239Z,53.32
2023-04-14T09:52:58.221Z,53.38
2023-04-14T09:53:58.209Z,50.62
2023-04-14T09:54:58.197Z,50.67
2023-04-14T09:55:58.168Z,51.57
2023-04-14T09:56:58.205Z,50.64
2023-04-14T09:57:58.350Z,52.76
2023-04-14T09:58:58.155Z,51.73
2023-04-14T09:59:58.127Z,50.80
2023-04-14T10:00:58.118Z,50.47
2023-04-14T10:01:58.264Z,49.05
2023-04-14T10:02:58.331Z,50.49
2023-04-14T10:03:58.101Z,50.90
2023-04-14T10:04:58.129Z,50.27
2023-04-14T10:05:58.072Z,49.54
2023-04-14T10:06:58.081Z,49.04
2023-04-14T10:07:58.051Z,48.05
2023-04-14T10:08:58.091Z,47.04
2023-04-14T10:09:58.030Z,47.06
2023-04-14T10:10:58.024Z,48.32
2023-04-14T10:11:58.004Z,50.24
2023-04-14T10:12:58.021Z,50.34
2023-04-14T10:13:57.980Z,50.37
2023-04-14T10:14:57.995Z,50.59
2023-04-14T10:15:58.022Z,52.03
2023-04-14T10:16:57.976Z,53.07
2023-04-14T10:17:57.991Z,53.05
2023-04-14T10:18:57.940Z,53.12
2023-04-14T10:19:57.920Z,53.60
2023-04-14T10:20:57.905Z,51.61
2023-04-14T10:21:57.905Z,51.28
2023-04-14T10:22:57.888Z,48.83
2023-04-14T10:23:58.103Z,48.02
2023-04-14T10:24:57.869Z,48.25
2023-04-14T10:25:57.850Z,48.98
2023-04-14T10:26:57.849Z,49.08
2023-04-14T10:27:57.814Z,49.58
2023-04-14T10:28:57.894Z,48.78
2023-04-14T10:29:57.791Z,48.78
2023-04-14T10:30:57.793Z,50.19
2023-04-14T10:31:57.900Z,49.08
2023-04-14T10:32:57.846Z,50.27
2023-04-14T10:33:57.785Z,48.81
2023-04-14T10:34:57.738Z,48.28
2023-04-14T10:35:57.724Z,47.17
2023-04-14T10:36:57.727Z,47.27
2023-04-14T10:37:57.702Z,46.92
2023-04-14T10:38:57.804Z,48.27
2023-04-14T10:39:57.705Z,48.90
2023-04-14T10:40:57.688Z,50.62
2023-04-14T10:41:57.690Z,48.98
2023-04-14T10:42:57.656Z,49.51
2023-04-14T10:43:57.641Z,48.37
2023-04-14T10:44:58.232Z,48.88
2023-04-14T10:45:57.619Z,48.15
2023-04-14T10:46:57.736Z,48.43
2023-04-14T10:47:57.653Z,48.71
2023-04-14T10:48:57.606Z,46.99
2023-04-14T10:49:57.596Z,46.59
2023-04-14T10:50:57.562Z,46.79
2023-04-14T10:51:57.567Z,47.19
2023-04-14T10:52:57.553Z,46.92
2023-04-14T10:53:57.543Z,48.33
2023-04-14T10:54:57.552Z,49.64
2023-04-14T10:55:57.516Z,49.31
2023-04-14T10:56:57.513Z,46.99
2023-04-14T10:57:57.497Z,46.99
2023-04-14T10:58:57.509Z,47.09
2023-04-14T10:59:57.614Z,47.09
2023-04-14T11:00:57.661Z,46.51
2023-04-14T11:01:57.492Z,48.33
2023-04-14T11:02:57.624Z,47.34
2023-04-14T11:03:57.794Z,47.14
2023-04-14T11:04:57.414Z,48.15
2023-04-14T11:05:57.400Z,47.44
2023-04-14T11:06:57.959Z,48.65
2023-04-14T11:07:58.722Z,48.33
2023-04-14T11:08:57.370Z,48.81
2023-04-14T11:09:57.364Z,46.49
2023-04-14T11:10:57.343Z,46.71
2023-04-14T11:11:57.329Z,47.74
2023-04-14T11:12:57.371Z,48.35
2023-04-14T11:13:57.321Z,48.85
2023-04-14T11:14:57.302Z,47.02
2023-04-14T11:15:57.302Z,48.43
2023-04-14T11:17:04.072Z,45.10
2023-04-14T11:17:58.311Z,45.70
2023-04-14T11:18:57.313Z,45.53
2023-04-14T11:19:57.259Z,44.31
2023-04-14T11:20:57.248Z,44.21
2023-04-14T11:21:57.223Z,46.81
2023-04-14T11:22:57.241Z,46.89
2023-04-14T11:23:57.223Z,45.07
2023-04-14T11:24:57.203Z,46.17
2023-04-14T11:25:57.179Z,44.37
2023-04-14T11:26:57.216Z,43.30
2023-04-14T11:27:57.186Z,44.92
2023-04-14T11:28:57.158Z,45.32
2023-04-14T11:29:57.150Z,46.01
2023-04-14T11:30:57.139Z,45.06
2023-04-14T11:31:57.195Z,44.65
2023-04-14T11:32:57.250Z,43.85
2023-04-14T11:33:57.118Z,45.14
2023-04-14T11:34:57.089Z,44.83
2023-04-14T11:35:57.077Z,43.82
2023-04-14T11:36:57.052Z,43.22
2023-04-14T11:37:57.060Z,43.52
2023-04-14T11:38:57.080Z,42.33
2023-04-14T11:39:57.024Z,42.76
2023-04-14T11:40:57.008Z,42.35
2023-04-14T11:41:57.008Z,44.37
2023-04-14T11:42:57.101Z,44.37
2023-04-14T11:43:57.009Z,43.87
2023-04-14T11:44:56.985Z,44.45
2023-04-14T11:45:56.998Z,44.25
2023-04-14T11:46:56.952Z,44.37
2023-04-14T11:47:56.990Z,43.97
2023-04-14T11:48:56.971Z,44.87
2023-04-14T11:49:56.925Z,44.67
2023-04-14T11:50:56.925Z,44.55
2023-04-14T11:51:56.906Z,43.85
2023-04-14T11:52:56.888Z,44.05
2023-04-14T11:53:56.869Z,45.18
2023-04-14T11:54:57.076Z,46.37
2023-04-14T11:55:56.868Z,44.35
2023-04-14T11:56:56.894Z,43.34
2023-04-14T11:57:56.842Z,41.83
2023-04-14T11:58:56.827Z,43.54
2023-04-14T11:59:56.817Z,44.47
2023-04-14T12:00:56.843Z,46.19
2023-04-14T12:01:56.847Z,44.27
2023-04-14T12:02:56.897Z,44.07
2023-04-14T12:03:56.920Z,43.87
2023-04-14T12:04:57.220Z,44.35
2023-04-14T12:05:56.751Z,44.55
2023-04-14T12:06:56.812Z,43.97
2023-04-14T12:07:56.734Z,44.27
2023-04-14T12:08:56.720Z,44.17
2023-04-14T12:09:56.700Z,43.66
2023-04-14T12:10:56.690Z,41.93
2023-04-14T12:11:56.686Z,41.33
2023-04-14T12:12:56.694Z,42.54
2023-04-14T12:13:56.693Z,41.63
2023-04-14T12:14:56.655Z,40.80
2023-04-14T12:15:56.690Z,40.80
2023-04-14T12:16:56.645Z,40.82
2023-04-14T12:17:57.108Z,41.33
2023-04-14T12:18:56.636Z,41.75
2023-04-14T12:19:56.594Z,42.18
2023-04-14T12:20:56.602Z,42.70
2023-04-14T12:21:56.570Z,44.49
2023-04-14T12:22:56.541Z,41.95
2023-04-14T12:23:56.578Z,41.95
2023-04-14T12:24:56.538Z,43.37
2023-04-14T12:25:56.546Z,41.83
2023-04-14T12:26:56.530Z,41.61
2023-04-14T12:27:57.302Z,43.54
2023-04-14T12:28:56.563Z,42.41
2023-04-14T12:29:56.470Z,41.06
2023-04-14T12:30:56.462Z,40.66
2023-04-14T12:31:56.514Z,40.46
2023-04-14T12:32:56.462Z,40.86
2023-04-14T12:33:56.862Z,39.65
2023-04-14T12:34:56.413Z,39.96
2023-04-14T12:35:56.411Z,40.16
2023-04-14T12:36:56.402Z,40.38
2023-04-14T12:37:56.393Z,41.13
2023-04-14T12:38:56.383Z,41.53
2023-04-14T12:39:56.372Z,40.80
2023-04-14T12:40:56.345Z,41.02
2023-04-14T12:41:56.348Z,42.03
2023-04-14T12:42:56.329Z,42.24
2023-04-14T12:43:56.376Z,40.80
2023-04-14T12:44:56.334Z,41.51
2023-04-14T12:45:56.306Z,40.18
2023-04-14T12:46:56.306Z,41.20
2023-04-14T12:47:56.348Z,40.18
2023-04-14T12:48:56.272Z,40.86
2023-04-14T12:49:56.242Z,39.76
2023-04-14T12:50:56.226Z,38.23
2023-04-14T12:51:56.217Z,37.54